| time (UTC) | temp F | wind direction | speed MPH | gust MPH | rain 1hr in | rain 24hr in | rain mn in | humidity % | barometer mb |
| 20260901125518 | 69 | 0 | 0.0 | 0.0 | 0.00 | 0.19 | 0.18 | 99 | 1015.1 |
| 20260901125020 | 69 | 0 | 0.0 | 0.0 | 0.00 | 0.19 | 0.18 | 99 | 1015.1 |
| 20260901124541 | 69 | 0 | 0.0 | 0.0 | 0.00 | 0.19 | 0.18 | 99 | 1015.1 |
| 20260901124017 | 69 | 0 | 0.0 | 0.0 | 0.00 | 0.19 | 0.18 | 99 | 1015.0 |
| 20260901123524 | 69 | 0 | 0.0 | 0.0 | 0.00 | 0.19 | 0.18 | 99 | 1015.2 |
| 20260901123040 | 69 | 0 | 0.0 | 0.0 | 0.00 | 0.19 | 0.18 | 99 | 1015.2 |
| 20260901122520 | 69 | 0 | 0.0 | 0.0 | 0.00 | 0.19 | 0.18 | 99 | 1015.3 |
| 20260901122017 | 69 | 0 | 0.0 | 0.0 | 0.00 | 0.19 | 0.18 | 99 | 1015.3 |
| 20260901121541 | 69 | 0 | 0.0 | 0.0 | 0.00 | 0.19 | 0.18 | 99 | 1015.4 |
| 20260901121022 | 68 | 0 | 0.0 | 0.0 | 0.00 | 0.19 | 0.18 | 99 | 1015.4 |
| 20260901120520 | 68 | 0 | 0.0 | 0.0 | 0.00 | 0.19 | 0.18 | 99 | 1015.4 |
| 20260901120037 | 68 | 0 | 0.0 | 0.0 | 0.00 | 0.19 | 0.18 | 99 | 1015.6 |
| 20260901115516 | 68 | 0 | 0.0 | 0.0 | 0.00 | 0.19 | 0.18 | 99 | 1015.7 |
| 20260901115027 | 68 | 0 | 0.0 | 0.0 | 0.00 | 0.19 | 0.18 | 99 | 1015.5 |
| 20260901114553 | 67 | 0 | 0.0 | 0.0 | 0.00 | 0.19 | 0.18 | 99 | 1015.4 |
| 20260901114021 | 67 | 0 | 0.0 | 0.0 | 0.00 | 0.19 | 0.18 | 99 | 1015.5 |
| 20260901113519 | 67 | 0 | 0.0 | 0.0 | 0.00 | 0.19 | 0.18 | 99 | 1015.6 |
| 20260901113035 | 67 | 0 | 0.0 | 0.0 | 0.00 | 0.19 | 0.18 | 99 | 1015.5 |
| 20260901112522 | 67 | 0 | 0.0 | 0.0 | 0.00 | 0.19 | 0.18 | 99 | 1015.3 |
| 20260901112020 | 67 | 0 | 0.0 | 0.0 | 0.00 | 0.19 | 0.18 | 99 | 1015.3 |
| 20260901111541 | 67 | 0 | 0.0 | 0.0 | 0.01 | 0.19 | 0.18 | 99 | 1015.4 |
| 20260901111027 | 67 | 0 | 0.0 | 0.0 | 0.02 | 0.19 | 0.18 | 99 | 1015.1 |
| 20260901110523 | 67 | 0 | 0.0 | 0.0 | 0.02 | 0.19 | 0.18 | 99 | 1015.0 |
| 20260901110044 | 67 | 0 | 0.0 | 0.0 | 0.03 | 0.19 | 0.18 | 99 | 1015.4 |
| 20260901105521 | 67 | 0 | 0.0 | 0.0 | 0.04 | 0.19 | 0.18 | 99 | 1015.3 |
| 20260901105022 | 67 | 0 | 0.0 | 0.0 | 0.04 | 0.19 | 0.18 | 99 | 1015.3 |
| 20260901104542 | 67 | 0 | 0.0 | 0.0 | 0.04 | 0.19 | 0.18 | 99 | 1015.3 |
| 20260901104020 | 67 | 0 | 0.0 | 0.0 | 0.04 | 0.19 | 0.18 | 99 | 1015.3 |
| 20260901103521 | 67 | 0 | 0.0 | 0.0 | 0.04 | 0.19 | 0.18 | 99 | 1015.3 |
| 20260901103046 | 67 | 0 | 0.0 | 0.0 | 0.04 | 0.19 | 0.18 | 99 | 1015.4 |
| 20260901102526 | 67 | 0 | 0.0 | 0.0 | 0.04 | 0.19 | 0.18 | 99 | 1015.5 |
| 20260901102023 | 67 | 0 | 0.0 | 0.0 | 0.04 | 0.19 | 0.18 | 99 | 1015.6 |
| 20260901101546 | 67 | 0 | 0.0 | 0.0 | 0.03 | 0.18 | 0.17 | 98 | 1015.6 |
| 20260901101023 | 67 | 0 | 0.0 | 0.0 | 0.02 | 0.17 | 0.16 | 99 | 1015.7 |
| 20260901100519 | 67 | 0 | 0.0 | 0.0 | 0.02 | 0.17 | 0.16 | 98 | 1015.5 |
| 20260901100050 | 67 | 0 | 0.0 | 0.0 | 0.00 | 0.15 | 0.14 | 99 | 1015.5 |
| 20260901095520 | 67 | 0 | 0.0 | 0.0 | 0.00 | 0.15 | 0.14 | 99 | 1015.6 |
| 20260901095022 | 67 | 0 | 0.0 | 0.0 | 0.00 | 0.15 | 0.14 | 99 | 1015.4 |
| 20260901094545 | 67 | 0 | 0.0 | 0.0 | 0.00 | 0.15 | 0.14 | 99 | 1015.3 |
| 20260901094024 | 67 | 0 | 0.0 | 0.0 | 0.00 | 0.15 | 0.14 | 98 | 1015.4 |
| 20260901093522 | 67 | 0 | 0.0 | 0.0 | 0.00 | 0.15 | 0.14 | 98 | 1015.3 |
| 20260901093042 | 67 | 0 | 0.0 | 0.0 | 0.00 | 0.15 | 0.14 | 98 | 1015.3 |
| 20260901092519 | 67 | 0 | 0.0 | 0.0 | 0.00 | 0.15 | 0.14 | 98 | 1015.2 |
| 20260901092027 | 67 | 0 | 0.0 | 0.0 | 0.01 | 0.15 | 0.14 | 98 | 1015.3 |
| 20260901091548 | 67 | 0 | 0.0 | 0.0 | 0.01 | 0.15 | 0.14 | 98 | 1015.3 |
| 20260901091028 | 67 | 0 | 0.0 | 0.0 | 0.02 | 0.15 | 0.14 | 98 | 1015.3 |
| 20260901090520 | 67 | 0 | 0.0 | 0.0 | 0.05 | 0.15 | 0.14 | 99 | 1015.2 |
| 20260901090041 | 67 | 0 | 0.0 | 0.0 | 0.08 | 0.15 | 0.14 | 98 | 1015.0 |
| 20260901085521 | 67 | 0 | 0.0 | 0.0 | 0.09 | 0.15 | 0.14 | 98 | 1015.1 |
| 20260901085025 | 67 | 0 | 0.0 | 0.0 | 0.10 | 0.15 | 0.14 | 98 | 1015.4 |
| 20260901084542 | 67 | 0 | 0.0 | 0.0 | 0.10 | 0.15 | 0.14 | 98 | 1015.3 |
| 20260901084023 | 67 | 0 | 0.0 | 0.0 | 0.11 | 0.15 | 0.14 | 98 | 1015.1 |
| 20260901083524 | 67 | 0 | 0.0 | 0.0 | 0.11 | 0.15 | 0.14 | 98 | 1015.3 |
| 20260901083042 | 67 | 0 | 0.0 | 0.0 | 0.11 | 0.15 | 0.14 | 99 | 1015.4 |
| 20260901082521 | 67 | 0 | 0.0 | 0.0 | 0.11 | 0.15 | 0.14 | 98 | 1015.2 |
| 20260901082020 | 67 | 0 | 0.0 | 0.0 | 0.10 | 0.14 | 0.13 | 98 | 1015.3 |
| 20260901081545 | 67 | 0 | 0.0 | 0.0 | 0.09 | 0.13 | 0.12 | 98 | 1015.4 |
| 20260901081020 | 67 | 0 | 0.0 | 0.0 | 0.09 | 0.13 | 0.12 | 98 | 1015.6 |
| 20260901080524 | 67 | 0 | 0.0 | 0.0 | 0.05 | 0.09 | 0.08 | 98 | 1015.5 |
| 20260901080041 | 67 | 0 | 0.0 | 0.0 | 0.03 | 0.07 | 0.06 | 98 | 1015.6 |
| 20260901075619 | 67 | 0 | 0.0 | 0.0 | 0.02 | 0.06 | 0.05 | 98 | 1015.6 |
| 20260901075019 | 67 | 0 | 0.0 | 0.0 | 0.01 | 0.05 | 0.04 | 98 | 1015.5 |
| 20260901074545 | 67 | 0 | 0.0 | 0.0 | 0.00 | 0.04 | 0.03 | 98 | 1015.7 |
| 20260901074018 | 67 | 0 | 0.0 | 0.0 | 0.00 | 0.04 | 0.03 | 98 | 1015.6 |
| 20260901073520 | 67 | 0 | 0.0 | 0.0 | 0.01 | 0.04 | 0.03 | 98 | 1015.5 |
| 20260901073039 | 67 | 0 | 0.0 | 0.0 | 0.01 | 0.04 | 0.03 | 98 | 1015.5 |
| 20260901072520 | 67 | 0 | 0.0 | 0.0 | 0.01 | 0.04 | 0.03 | 98 | 1015.5 |
| 20260901072024 | 67 | 0 | 0.0 | 0.0 | 0.01 | 0.04 | 0.03 | 98 | 1015.6 |
| 20260901071543 | 67 | 0 | 0.0 | 0.0 | 0.01 | 0.04 | 0.03 | 98 | 1015.7 |
| 20260901071023 | 67 | 0 | 0.0 | 0.0 | 0.02 | 0.04 | 0.03 | 98 | 1015.7 |
| 20260901070524 | 67 | 0 | 0.0 | 0.0 | 0.02 | 0.04 | 0.03 | 98 | 1015.7 |
| 20260901070042 | 67 | 0 | 0.0 | 0.0 | 0.02 | 0.04 | 0.03 | 98 | 1015.9 |
| 20260901065521 | 67 | 0 | 0.0 | 0.0 | 0.02 | 0.05 | 0.03 | 98 | 1016.0 |
| 20260901065020 | 67 | 0 | 0.0 | 0.0 | 0.02 | 0.05 | 0.03 | 98 | 1016.0 |
| 20260901064541 | 67 | 0 | 0.0 | 0.0 | 0.02 | 0.05 | 0.03 | 98 | 1016.2 |
| 20260901064022 | 67 | 0 | 0.0 | 0.0 | 0.02 | 0.05 | 0.03 | 98 | 1016.1 |
| 20260901063523 | 67 | 0 | 0.0 | 0.0 | 0.01 | 0.04 | 0.02 | 98 | 1016.2 |
| 20260901063044 | 67 | 0 | 0.0 | 0.0 | 0.01 | 0.04 | 0.02 | 98 | 1016.2 |
| 20260901062528 | 67 | 0 | 0.0 | 0.0 | 0.01 | 0.04 | 0.02 | 98 | 1016.2 |
| 20260901062023 | 67 | 0 | 0.0 | 0.0 | 0.01 | 0.04 | 0.02 | 98 | 1016.3 |
| 20260901061542 | 67 | 0 | 0.0 | 0.0 | 0.01 | 0.04 | 0.02 | 98 | 1016.4 |
| 20260901061021 | 67 | 0 | 0.0 | 0.0 | 0.00 | 0.03 | 0.01 | 98 | 1016.4 |
| 20260901060521 | 67 | 0 | 0.0 | 0.0 | 0.00 | 0.03 | 0.01 | 98 | 1016.4 |
| 20260901060047 | 67 | 0 | 0.0 | 0.0 | 0.00 | 0.03 | 0.01 | 98 | 1016.6 |
| 20260901055524 | 67 | 0 | 0.0 | 0.0 | 0.00 | 0.03 | 0.01 | 98 | 1016.6 |
| 20260901055026 | 67 | 0 | 0.0 | 0.0 | 0.00 | 0.03 | 0.01 | 98 | 1016.6 |
| 20260901054541 | 67 | 0 | 0.0 | 0.0 | 0.00 | 0.03 | 0.01 | 98 | 1016.6 |
| 20260901054022 | 67 | 0 | 0.0 | 0.0 | 0.01 | 0.03 | 0.01 | 98 | 1016.5 |
| 20260901053520 | 67 | 0 | 0.0 | 0.0 | 0.01 | 0.03 | 0.01 | 98 | 1016.5 |
| 20260901053050 | 67 | 0 | 0.0 | 0.0 | 0.01 | 0.03 | 0.01 | 98 | 1016.5 |
| 20260901052521 | 67 | 0 | 0.0 | 0.0 | 0.01 | 0.03 | 0.01 | 97 | 1016.6 |
| 20260901052024 | 67 | 0 | 0.0 | 0.0 | 0.01 | 0.03 | 0.01 | 98 | 1016.6 |
| 20260901051541 | 67 | 0 | 0.0 | 0.0 | 0.01 | 0.03 | 0.01 | 97 | 1016.7 |
| 20260901051026 | 67 | 0 | 0.0 | 0.0 | 0.01 | 0.03 | 0.01 | 97 | 1016.8 |
| 20260901050523 | 67 | 0 | 0.0 | 0.0 | 0.01 | 0.03 | 0.01 | 98 | 1016.9 |
| 20260901050042 | 67 | 0 | 0.0 | 0.0 | 0.01 | 0.03 | 0.01 | 98 | 1017.0 |
| 20260901045522 | 67 | 0 | 0.0 | 0.0 | 0.01 | 0.03 | 0.01 | 98 | 1017.1 |
| 20260901045021 | 67 | 0 | 0.0 | 0.0 | 0.01 | 0.03 | 0.01 | 97 | 1017.1 |
| 20260901044540 | 67 | 0 | 0.0 | 0.0 | 0.01 | 0.03 | 0.01 | 97 | 1016.9 |
| 20260901044021 | 67 | 0 | 0.0 | 0.0 | 0.00 | 0.02 | 0.00 | 97 | 1017.0 |
| 20260901043520 | 67 | 0 | 0.0 | 0.0 | 0.00 | 0.02 | 0.00 | 97 | 1017.1 |
| 20260901043042 | 67 | 0 | 0.0 | 0.0 | 0.00 | 0.02 | 0.00 | 97 | 1017.2 |
| 20260901042520 | 67 | 0 | 0.0 | 0.0 | 0.00 | 0.02 | 0.00 | 97 | 1017.0 |
| 20260901042020 | 67 | 0 | 0.0 | 0.0 | 0.00 | 0.02 | 0.00 | 97 | 1017.2 |
| 20260901041544 | 67 | 0 | 0.0 | 0.0 | 0.00 | 0.02 | 0.00 | 97 | 1017.1 |
| 20260901041021 | 67 | 0 | 0.0 | 0.0 | 0.00 | 0.02 | 0.00 | 97 | 1017.1 |
| 20260901040524 | 67 | 0 | 0.0 | 0.0 | 0.00 | 0.02 | 0.00 | 97 | 1016.8 |
| 20260901040056 | 67 | 0 | 0.0 | 0.0 | 0.00 | 0.02 | 0.00 | 97 | 1016.8 |
| 20260901035523 | 67 | 0 | 0.0 | 0.0 | 0.00 | 0.02 | 0.02 | 97 | 1016.8 |
| 20260901035023 | 67 | 0 | 0.0 | 0.0 | 0.00 | 0.02 | 0.02 | 97 | 1017.0 |
| 20260901034542 | 67 | 0 | 0.0 | 0.0 | 0.00 | 0.02 | 0.02 | 97 | 1017.2 |
| 20260901034020 | 67 | 0 | 0.0 | 0.0 | 0.00 | 0.02 | 0.02 | 97 | 1017.1 |
| 20260901033522 | 67 | 0 | 0.0 | 0.0 | 0.00 | 0.02 | 0.02 | 97 | 1017.0 |
| 20260901033041 | 67 | 0 | 0.0 | 0.0 | 0.00 | 0.02 | 0.02 | 97 | 1017.0 |
| 20260901032521 | 67 | 0 | 0.0 | 0.0 | 0.00 | 0.02 | 0.02 | 97 | 1017.1 |
| 20260901032043 | 67 | 0 | 0.0 | 0.0 | 0.00 | 0.02 | 0.02 | 97 | 1017.1 |
| 20260901031541 | 67 | 0 | 0.0 | 0.0 | 0.00 | 0.02 | 0.02 | 97 | 1017.2 |
| 20260901031023 | 67 | 0 | 0.0 | 0.0 | 0.00 | 0.02 | 0.02 | 97 | 1017.4 |
| 20260901030524 | 67 | 0 | 0.0 | 0.0 | 0.00 | 0.02 | 0.02 | 97 | 1017.4 |
| 20260901030044 | 67 | 0 | 0.0 | 0.0 | 0.00 | 0.02 | 0.02 | 97 | 1017.3 |
| 20260901025523 | 67 | 0 | 0.0 | 0.0 | 0.00 | 0.02 | 0.02 | 97 | 1017.2 |
| 20260901025026 | 67 | 0 | 0.0 | 0.0 | 0.00 | 0.02 | 0.02 | 97 | 1017.3 |
| 20260901024543 | 67 | 0 | 0.0 | 0.0 | 0.00 | 0.02 | 0.02 | 97 | 1017.4 |
| 20260901024026 | 67 | 0 | 0.0 | 0.0 | 0.00 | 0.02 | 0.02 | 97 | 1017.5 |
| 20260901023520 | 67 | 0 | 0.0 | 0.0 | 0.00 | 0.02 | 0.02 | 97 | 1017.5 |
| 20260901023041 | 67 | 0 | 0.0 | 0.0 | 0.00 | 0.02 | 0.02 | 97 | 1017.5 |
| 20260901022524 | 67 | 0 | 0.0 | 0.0 | 0.00 | 0.02 | 0.02 | 97 | 1017.5 |
| 20260901022024 | 67 | 0 | 0.0 | 0.0 | 0.00 | 0.02 | 0.02 | 97 | 1017.6 |
| 20260901021547 | 67 | 0 | 0.0 | 0.0 | 0.00 | 0.02 | 0.02 | 97 | 1017.7 |
| 20260901021025 | 67 | 0 | 0.0 | 0.0 | 0.00 | 0.02 | 0.02 | 97 | 1017.6 |
| 20260901020524 | 67 | 0 | 0.0 | 0.0 | 0.00 | 0.02 | 0.02 | 97 | 1017.7 |
| 20260901020040 | 67 | 0 | 0.0 | 0.0 | 0.00 | 0.02 | 0.02 | 97 | 1017.8 |
| 20260901015521 | 67 | 0 | 0.0 | 0.0 | 0.00 | 0.02 | 0.02 | 97 | 1017.8 |
| 20260901015020 | 67 | 0 | 0.0 | 0.0 | 0.00 | 0.02 | 0.02 | 97 | 1017.8 |
| 20260901014541 | 67 | 0 | 0.0 | 0.0 | 0.00 | 0.02 | 0.02 | 97 | 1017.9 |
| 20260901014024 | 67 | 0 | 0.0 | 0.0 | 0.00 | 0.02 | 0.02 | 96 | 1018.0 |
| 20260901013524 | 67 | 0 | 0.0 | 0.0 | 0.00 | 0.02 | 0.02 | 97 | 1017.9 |
| 20260901013055 | 67 | 0 | 0.0 | 0.0 | 0.00 | 0.02 | 0.02 | 96 | 1018.0 |
| 20260901012523 | 67 | 0 | 0.0 | 0.0 | 0.00 | 0.02 | 0.02 | 96 | 1018.1 |
| 20260901012025 | 67 | 0 | 0.0 | 0.0 | 0.00 | 0.02 | 0.02 | 96 | 1018.0 |
| 20260901011542 | 67 | 0 | 0.0 | 0.0 | 0.00 | 0.02 | 0.02 | 96 | 1017.9 |
| 20260901011018 | 67 | 0 | 0.0 | 0.0 | 0.00 | 0.02 | 0.02 | 96 | 1017.9 |
| 20260901010520 | 67 | 0 | 0.0 | 0.0 | 0.00 | 0.02 | 0.02 | 96 | 1017.9 |
| 20260901010040 | 67 | 0 | 0.0 | 0.0 | 0.00 | 0.02 | 0.02 | 96 | 1017.7 |
| 20260901005519 | 67 | 0 | 0.0 | 0.0 | 0.00 | 0.02 | 0.02 | 96 | 1017.8 |
| 20260901005024 | 67 | 0 | 0.0 | 0.0 | 0.00 | 0.02 | 0.02 | 96 | 1017.9 |
| 20260901004544 | 67 | 0 | 0.0 | 0.0 | 0.00 | 0.02 | 0.02 | 96 | 1017.6 |
| 20260901004022 | 67 | 0 | 0.0 | 0.0 | 0.00 | 0.02 | 0.02 | 96 | 1017.7 |
| 20260901003523 | 67 | 0 | 0.0 | 0.0 | 0.00 | 0.02 | 0.02 | 96 | 1017.7 |
| 20260901003043 | 67 | 0 | 0.0 | 0.0 | 0.00 | 0.02 | 0.02 | 96 | 1017.6 |
| 20260901002521 | 67 | 0 | 0.0 | 0.0 | 0.00 | 0.02 | 0.02 | 96 | 1017.7 |
| 20260901002024 | 67 | 0 | 0.0 | 0.0 | 0.00 | 0.02 | 0.02 | 95 | 1017.6 |
| 20260901001541 | 67 | 0 | 0.0 | 0.0 | 0.00 | 0.02 | 0.02 | 95 | 1017.5 |
| 20260901001021 | 67 | 0 | 0.0 | 0.0 | 0.00 | 0.02 | 0.02 | 95 | 1017.5 |
| 20260901000520 | 67 | 0 | 0.0 | 0.0 | 0.00 | 0.02 | 0.02 | 95 | 1017.5 |
| 20260901000039 | 67 | 0 | 0.0 | 0.0 | 0.00 | 0.02 | 0.02 | 95 | 1017.6 |
| 20260831235520 | 67 | 0 | 0.0 | 0.0 | 0.00 | 0.02 | 0.02 | 95 | 1017.6 |
| 20260831235020 | 67 | 0 | 0.0 | 0.0 | 0.00 | 0.02 | 0.02 | 95 | 1017.5 |
| 20260831234551 | 67 | 0 | 0.0 | 0.0 | 0.00 | 0.02 | 0.02 | 95 | 1017.6 |
| 20260831234023 | 67 | 0 | 0.0 | 0.0 | 0.00 | 0.02 | 0.02 | 95 | 1017.6 |
| 20260831233523 | 67 | 0 | 0.0 | 0.0 | 0.00 | 0.02 | 0.02 | 94 | 1017.6 |
| 20260831233041 | 67 | 0 | 0.0 | 0.0 | 0.00 | 0.02 | 0.02 | 94 | 1017.7 |
| 20260831232520 | 68 | 0 | 0.0 | 0.0 | 0.00 | 0.02 | 0.02 | 94 | 1017.8 |
| 20260831232018 | 68 | 0 | 0.0 | 0.0 | 0.00 | 0.02 | 0.02 | 94 | 1017.8 |
| 20260831231542 | 68 | 0 | 0.0 | 0.0 | 0.00 | 0.02 | 0.02 | 94 | 1017.9 |
| 20260831231020 | 68 | 0 | 0.0 | 0.0 | 0.00 | 0.02 | 0.02 | 94 | 1017.9 |
| 20260831230522 | 68 | 0 | 0.0 | 0.0 | 0.00 | 0.02 | 0.02 | 94 | 1018.0 |
| 20260831230044 | 68 | 0 | 0.0 | 0.0 | 0.00 | 0.02 | 0.02 | 94 | 1017.9 |
| 20260831225521 | 68 | 0 | 0.0 | 0.0 | 0.00 | 0.02 | 0.02 | 94 | 1017.8 |
| 20260831225022 | 68 | 0 | 0.0 | 0.0 | 0.00 | 0.02 | 0.02 | 94 | 1017.9 |
| 20260831224543 | 68 | 0 | 0.0 | 0.0 | 0.00 | 0.02 | 0.02 | 94 | 1017.8 |
| 20260831224021 | 68 | 0 | 0.0 | 0.0 | 0.00 | 0.02 | 0.02 | 94 | 1018.0 |
| 20260831223520 | 68 | 0 | 0.0 | 0.0 | 0.00 | 0.02 | 0.02 | 94 | 1018.0 |
| 20260831223044 | 68 | 0 | 0.0 | 0.0 | 0.00 | 0.02 | 0.02 | 94 | 1018.0 |
| 20260831222518 | 68 | 0 | 0.0 | 0.0 | 0.00 | 0.02 | 0.02 | 94 | 1018.0 |
| 20260831222024 | 68 | 0 | 0.0 | 0.0 | 0.00 | 0.02 | 0.02 | 94 | 1018.0 |
| 20260831221541 | 68 | 0 | 0.0 | 0.0 | 0.00 | 0.02 | 0.02 | 94 | 1018.1 |
| 20260831221022 | 68 | 0 | 0.0 | 0.0 | 0.00 | 0.02 | 0.02 | 94 | 1018.1 |
| 20260831220521 | 68 | 0 | 0.0 | 0.0 | 0.00 | 0.02 | 0.02 | 93 | 1018.1 |
| 20260831220040 | 68 | 0 | 0.0 | 0.0 | 0.00 | 0.02 | 0.02 | 93 | 1018.3 |
| 20260831215521 | 68 | 0 | 0.0 | 0.0 | 0.00 | 0.03 | 0.02 | 93 | 1018.5 |
| 20260831215025 | 68 | 0 | 0.0 | 0.0 | 0.00 | 0.03 | 0.02 | 93 | 1018.4 |
| 20260831214541 | 68 | 0 | 0.0 | 0.0 | 0.00 | 0.03 | 0.02 | 93 | 1018.4 |
| 20260831214021 | 68 | 0 | 0.0 | 1.0 | 0.00 | 0.03 | 0.02 | 93 | 1018.4 |
| 20260831213522 | 68 | 0 | 0.0 | 3.0 | 0.00 | 0.03 | 0.02 | 92 | 1018.4 |
| 20260831213045 | 68 | 0 | 0.0 | 3.0 | 0.00 | 0.03 | 0.02 | 92 | 1018.4 |
| 20260831212523 | 68 | 65 | 0.0 | 3.0 | 0.00 | 0.03 | 0.02 | 92 | 1018.4 |
| 20260831212024 | 68 | 52 | 0.0 | 1.0 | 0.00 | 0.03 | 0.02 | 93 | 1018.5 |
| 20260831211542 | 68 | 0 | 0.0 | 1.0 | 0.00 | 0.03 | 0.02 | 93 | 1018.6 |
| 20260831211022 | 68 | 0 | 0.0 | 0.0 | 0.00 | 0.03 | 0.02 | 94 | 1018.7 |
| 20260831210521 | 68 | 0 | 0.0 | 0.0 | 0.00 | 0.03 | 0.02 | 93 | 1018.7 |
| 20260831210041 | 68 | 0 | 0.0 | 0.0 | 0.00 | 0.03 | 0.02 | 93 | 1018.6 |
| 20260831205520 | 68 | 0 | 0.0 | 0.0 | 0.00 | 0.03 | 0.02 | 93 | 1018.8 |
| 20260831205021 | 68 | 0 | 0.0 | 0.0 | 0.00 | 0.03 | 0.02 | 93 | 1018.7 |
| 20260831204549 | 68 | 0 | 0.0 | 0.0 | 0.00 | 0.03 | 0.02 | 93 | 1018.7 |
| 20260831204020 | 68 | 0 | 0.0 | 0.0 | 0.00 | 0.03 | 0.02 | 93 | 1018.8 |
| 20260831203520 | 68 | 0 | 0.0 | 0.0 | 0.00 | 0.03 | 0.02 | 93 | 1018.8 |
| 20260831203059 | 68 | 0 | 0.0 | 0.0 | 0.00 | 0.03 | 0.02 | 93 | 1018.7 |
| 20260831202523 | 68 | 0 | 0.0 | 0.0 | 0.00 | 0.03 | 0.02 | 92 | 1018.8 |
| 20260831202021 | 68 | 0 | 0.0 | 0.0 | 0.00 | 0.03 | 0.02 | 92 | 1018.7 |
| 20260831201545 | 68 | 0 | 0.0 | 0.0 | 0.00 | 0.03 | 0.02 | 92 | 1018.7 |
| 20260831201025 | 68 | 0 | 0.0 | 0.0 | 0.00 | 0.03 | 0.02 | 92 | 1018.8 |
| 20260831200522 | 68 | 0 | 0.0 | 0.0 | 0.00 | 0.03 | 0.02 | 92 | 1018.7 |
| 20260831200122 | 68 | 0 | 0.0 | 1.0 | 0.00 | 0.03 | 0.02 | 92 | 1018.8 |
| 20260831195523 | 68 | 0 | 0.0 | 1.0 | 0.00 | 0.03 | 0.02 | 92 | 1018.9 |
| 20260831195020 | 68 | 0 | 0.0 | 1.0 | 0.00 | 0.03 | 0.02 | 92 | 1019.1 |
| 20260831194541 | 68 | 0 | 0.0 | 1.0 | 0.00 | 0.03 | 0.02 | 93 | 1019.0 |
| 20260831194018 | 68 | 0 | 0.0 | 1.0 | 0.00 | 0.03 | 0.02 | 92 | 1019.2 |
| 20260831193522 | 68 | 358 | 0.0 | 1.0 | 0.00 | 0.03 | 0.02 | 93 | 1019.2 |
| 20260831193041 | 68 | 0 | 0.0 | 0.0 | 0.00 | 0.03 | 0.02 | 93 | 1019.2 |
| 20260831192521 | 68 | 0 | 0.0 | 0.0 | 0.00 | 0.03 | 0.02 | 93 | 1019.3 |
| 20260831192020 | 68 | 0 | 0.0 | 0.0 | 0.00 | 0.03 | 0.02 | 93 | 1019.6 |
| 20260831191546 | 68 | 0 | 0.0 | 0.0 | 0.00 | 0.03 | 0.02 | 94 | 1019.5 |
| 20260831191022 | 68 | 0 | 0.0 | 0.0 | 0.00 | 0.03 | 0.02 | 94 | 1019.6 |
| 20260831190521 | 68 | 0 | 0.0 | 0.0 | 0.00 | 0.03 | 0.02 | 94 | 1019.5 |
| 20260831190043 | 68 | 0 | 0.0 | 0.0 | 0.00 | 0.03 | 0.02 | 94 | 1019.6 |
| 20260831185521 | 68 | 0 | 0.0 | 0.0 | 0.00 | 0.03 | 0.02 | 94 | 1019.6 |
| 20260831185023 | 68 | 0 | 0.0 | 0.0 | 0.00 | 0.03 | 0.02 | 94 | 1019.6 |
| 20260831184546 | 68 | 0 | 0.0 | 0.0 | 0.00 | 0.03 | 0.02 | 95 | 1019.6 |
| 20260831184022 | 68 | 0 | 0.0 | 0.0 | 0.00 | 0.03 | 0.02 | 94 | 1019.7 |
| 20260831183524 | 68 | 0 | 0.0 | 0.0 | 0.01 | 0.03 | 0.02 | 94 | 1019.8 |
| 20260831183041 | 67 | 0 | 0.0 | 0.0 | 0.01 | 0.03 | 0.02 | 94 | 1019.9 |
| 20260831182525 | 67 | 0 | 0.0 | 0.0 | 0.01 | 0.03 | 0.02 | 94 | 1020.0 |
| 20260831182020 | 67 | 0 | 0.0 | 0.0 | 0.01 | 0.03 | 0.02 | 94 | 1020.0 |
| 20260831181550 | 67 | 0 | 0.0 | 0.0 | 0.01 | 0.03 | 0.02 | 94 | 1020.0 |
| 20260831181020 | 67 | 0 | 0.0 | 1.0 | 0.01 | 0.03 | 0.02 | 93 | 1020.1 |
| 20260831180524 | 67 | 0 | 0.0 | 1.0 | 0.01 | 0.03 | 0.02 | 93 | 1020.2 |
| 20260831180041 | 67 | 0 | 0.0 | 0.0 | 0.01 | 0.03 | 0.02 | 93 | 1020.3 |
| 20260831175521 | 68 | 0 | 0.0 | 0.0 | 0.01 | 0.03 | 0.02 | 93 | 1020.2 |
| 20260831175024 | 68 | 0 | 0.0 | 0.0 | 0.01 | 0.03 | 0.02 | 92 | 1020.3 |
| 20260831174549 | 68 | 0 | 0.0 | 0.0 | 0.01 | 0.03 | 0.02 | 91 | 1020.3 |
| 20260831174021 | 68 | 0 | 0.0 | 0.0 | 0.01 | 0.03 | 0.02 | 91 | 1020.3 |
| 20260831173521 | 68 | 0 | 0.0 | 0.0 | 0.00 | 0.02 | 0.01 | 90 | 1020.4 |
| 20260831173040 | 68 | 0 | 0.0 | 2.0 | 0.00 | 0.02 | 0.01 | 89 | 1020.4 |
| 20260831172518 | 68 | 0 | 0.0 | 2.0 | 0.00 | 0.02 | 0.01 | 88 | 1020.3 |
| 20260831172020 | 68 | 0 | 0.0 | 2.0 | 0.00 | 0.02 | 0.01 | 87 | 1020.4 |
| 20260831171552 | 69 | 0 | 0.0 | 1.0 | 0.00 | 0.02 | 0.01 | 88 | 1020.6 |
| 20260831171023 | 69 | 0 | 0.0 | 1.0 | 0.00 | 0.02 | 0.01 | 88 | 1020.6 |
| 20260831170526 | 69 | 0 | 0.0 | 1.0 | 0.00 | 0.02 | 0.01 | 87 | 1020.6 |
| 20260831170043 | 69 | 0 | 0.0 | 1.0 | 0.00 | 0.02 | 0.01 | 87 | 1020.5 |
| 20260831165521 | 69 | 0 | 0.0 | 1.0 | 0.00 | 0.02 | 0.01 | 87 | 1020.5 |
| 20260831165020 | 69 | 0 | 0.0 | 3.0 | 0.00 | 0.02 | 0.01 | 87 | 1020.5 |
| 20260831164541 | 70 | 0 | 0.0 | 3.0 | 0.00 | 0.02 | 0.01 | 86 | 1020.7 |
| 20260831164018 | 70 | 0 | 0.0 | 2.0 | 0.00 | 0.02 | 0.01 | 86 | 1020.7 |
| 20260831163518 | 71 | 0 | 0.0 | 2.0 | 0.00 | 0.02 | 0.01 | 87 | 1020.6 |
| 20260831163043 | 71 | 8 | 0.0 | 2.0 | 0.00 | 0.02 | 0.01 | 87 | 1020.6 |
| 20260831162525 | 71 | 8 | 0.0 | 2.0 | 0.00 | 0.02 | 0.01 | 87 | 1020.7 |
| 20260831162024 | 71 | 9 | 0.0 | 2.0 | 0.00 | 0.02 | 0.01 | 87 | 1020.8 |
| 20260831161543 | 71 | 0 | 0.0 | 2.0 | 0.00 | 0.02 | 0.01 | 88 | 1020.6 |
| 20260831161021 | 71 | 15 | 0.0 | 2.0 | 0.00 | 0.02 | 0.01 | 89 | 1020.7 |
| 20260831160520 | 71 | 0 | 0.0 | 2.0 | 0.00 | 0.02 | 0.01 | 88 | 1020.7 |
| 20260831160043 | 71 | 0 | 0.0 | 2.0 | 0.00 | 0.02 | 0.01 | 88 | 1020.7 |
| 20260831155520 | 71 | 302 | 0.0 | 1.0 | 0.00 | 0.02 | 0.01 | 89 | 1020.7 |
| 20260831155021 | 71 | 0 | 0.0 | 1.0 | 0.00 | 0.02 | 0.01 | 88 | 1020.6 |
| 20260831154610 | 71 | 0 | 0.0 | 1.0 | 0.00 | 0.02 | 0.01 | 86 | 1020.7 |
| 20260831154024 | 71 | 0 | 0.0 | 3.0 | 0.00 | 0.02 | 0.01 | 86 | 1020.8 |
| 20260831153525 | 71 | 0 | 0.0 | 3.0 | 0.00 | 0.02 | 0.01 | 84 | 1020.7 |
| 20260831153043 | 72 | 0 | 0.0 | 3.0 | 0.00 | 0.02 | 0.01 | 82 | 1020.7 |
| 20260831152522 | 72 | 250 | 0.0 | 3.0 | 0.00 | 0.02 | 0.01 | 81 | 1020.7 |
| 20260831152022 | 72 | 0 | 0.0 | 2.0 | 0.00 | 0.02 | 0.01 | 83 | 1020.7 |
| 20260831151544 | 72 | 0 | 0.0 | 4.0 | 0.00 | 0.02 | 0.01 | 83 | 1020.5 |
| 20260831151021 | 72 | 0 | 0.0 | 4.0 | 0.00 | 0.02 | 0.01 | 86 | 1020.5 |
| 20260831150521 | 72 | 0 | 0.0 | 4.0 | 0.00 | 0.02 | 0.01 | 85 | 1020.5 |
| 20260831150041 | 71 | 278 | 1.0 | 4.0 | 0.00 | 0.02 | 0.01 | 85 | 1020.5 |
| 20260831145520 | 71 | 55 | 0.0 | 4.0 | 0.00 | 0.02 | 0.01 | 88 | 1020.5 |
| 20260831145020 | 70 | 0 | 0.0 | 2.0 | 0.00 | 0.02 | 0.01 | 90 | 1020.5 |
| 20260831144537 | 70 | 0 | 0.0 | 3.0 | 0.00 | 0.02 | 0.01 | 90 | 1020.5 |
| 20260831144019 | 69 | 53 | 0.0 | 3.0 | 0.00 | 0.02 | 0.01 | 89 | 1020.7 |
| 20260831143524 | 69 | 0 | 0.0 | 3.0 | 0.00 | 0.02 | 0.01 | 89 | 1020.8 |
| 20260831143042 | 69 | 0 | 0.0 | 2.0 | 0.00 | 0.02 | 0.01 | 89 | 1020.7 |
| 20260831142522 | 69 | 0 | 0.0 | 2.0 | 0.00 | 0.02 | 0.01 | 89 | 1020.8 |
| 20260831142024 | 69 | 0 | 0.0 | 2.0 | 0.00 | 0.02 | 0.01 | 90 | 1020.6 |
| 20260831141542 | 69 | 0 | 0.0 | 2.0 | 0.00 | 0.02 | 0.01 | 89 | 1020.6 |
| 20260831141021 | 69 | 0 | 0.0 | 1.0 | 0.00 | 0.02 | 0.01 | 92 | 1020.6 |
| 20260831140521 | 68 | 0 | 0.0 | 0.0 | 0.00 | 0.02 | 0.01 | 92 | 1020.5 |
| 20260831140040 | 68 | 0 | 0.0 | 0.0 | 0.00 | 0.02 | 0.01 | 92 | 1020.5 |
| 20260831135522 | 68 | 0 | 0.0 | 0.0 | 0.00 | 0.02 | 0.01 | 92 | 1020.8 |
| 20260831135020 | 68 | 0 | 0.0 | 0.0 | 0.00 | 0.02 | 0.01 | 93 | 1020.7 |
| 20260831134547 | 68 | 0 | 0.0 | 2.0 | 0.00 | 0.02 | 0.01 | 94 | 1020.6 |
| 20260831134020 | 67 | 0 | 0.0 | 2.0 | 0.00 | 0.02 | 0.01 | 93 | 1020.5 |
| 20260831133517 | 67 | 0 | 0.0 | 2.0 | 0.00 | 0.02 | 0.01 | 95 | 1020.5 |
| 20260831133045 | 66 | 0 | 0.0 | 2.0 | 0.00 | 0.02 | 0.01 | 95 | 1020.7 |
| 20260831132526 | 66 | 0 | 0.0 | 2.0 | 0.00 | 0.02 | 0.01 | 95 | 1020.4 |
| 20260831132026 | 66 | 0 | 0.0 | 2.0 | 0.00 | 0.02 | 0.01 | 95 | 1020.4 |
| 20260831131541 | 66 | 0 | 0.0 | 0.0 | 0.00 | 0.02 | 0.01 | 96 | 1020.6 |
| 20260831131017 | 66 | 0 | 0.0 | 0.0 | 0.00 | 0.02 | 0.01 | 97 | 1020.6 |
| 20260831130521 | 65 | 0 | 0.0 | 2.0 | 0.00 | 0.02 | 0.01 | 97 | 1020.7 |
| 20260831130042 | 65 | 0 | 0.0 | 2.0 | 0.00 | 0.02 | 0.01 | 97 | 1020.7 |